Weather at Punta Cana International Airport

Public forecast

Using degrees Celsius for public forecast. Weather courtesy of forecast.io.

Current aviation weather report (METAR) for Punta Cana International Airport

Report is more than 6 hours old.

2022/11/14 15:00 (retrieved 2 years ago)

MDPC 141500Z 08007KT 9999 FEW020 29/24 Q1016

Closest aviation forecast (TAF) to Punta Cana International Airport

Forecast is more than 12 hours old.

Closest forecast is Rafael Hern├índez International Airport, 70.4 nm (130.3 km) E.

2023/02/22 18:33 Ammendment (retrieved 1 year ago)

TAF TJBQ 221728Z 2218/2318 08016G23KT P6SM SCT030 SCT050 FM230000 09009KT P6SM SKC FM231300 08017G26KT P6SM FEW035 AMD NOT SKED 2302/2302